This is the latest recevied weather packets stored in our database for station/object VA3BOO. If no packets are shown the sender has not sent any weather packets the latest 10 day(s).
| Time | Temp. | Humidity | Pressure | Rain* | Wind** | Luminosity | Snow |
|---|---|---|---|---|---|---|---|
| 1778004305 | 20.56° C | 56% | 1002.1 hPa | 0 mm | - | 568 W/m² | - |
| 1778004005 | 20° C | 57% | 1002 hPa | 0 mm | - | 752 W/m² | - |
| 1778003705 | 20° C | 59% | 1002.1 hPa | 0 mm | - | 540 W/m² | - |
| 1778003405 | 20° C | 59% | 1002.3 hPa | 0 mm | - | 411 W/m² | - |
| 1778003105 | 19.44° C | 60% | 1002.3 hPa | 0 mm | - | 917 W/m² | - |
| 1778002805 | 20° C | 60% | 1002.2 hPa | 0 mm | - | 281 W/m² | - |
| 1778002505 | 20° C | 60% | 1002.2 hPa | 0 mm | - | 347 W/m² | - |
| 1778002205 | 20° C | 59% | 1002.2 hPa | 0 mm | - | 349 W/m² | - |
| 1778001905 | 18.89° C | 65% | 1002.2 hPa | 0 mm | - | 596 W/m² | - |
| 1778001605 | 18.33° C | 64% | 1002.3 hPa | 0 mm | - | 730 W/m² | - |
| 1778001305 | 17.22° C | 67% | 1002.2 hPa | 0 mm | - | 355 W/m² | - |
| 1778001005 | 16.67° C | 68% | 1002.3 hPa | 0 mm | - | 313 W/m² | - |
| 1778000705 | 16.67° C | 68% | 1002.5 hPa | 0 mm | - | 98 W/m² | - |
| 1778000405 | 16.67° C | 68% | 1002.5 hPa | 0 mm | - | 70 W/m² | - |
| 1778000105 | 16.67° C | 68% | 1002.5 hPa | 0 mm | - | 73 W/m² | - |
| 1777999805 | 16.67° C | 67% | 1002.4 hPa | 0 mm | - | 64 W/m² | - |
| 1777999504 | 16.67° C | 68% | 1002.3 hPa | 0 mm | - | 79 W/m² | - |
| 1777999204 | 16.67° C | 67% | 1002.3 hPa | 0 mm | - | 103 W/m² | - |
| 1777998905 | 16.67° C | 68% | 1002.3 hPa | 0 mm | - | 150 W/m² | - |
| 1777998605 | 16.67° C | 67% | 1002.3 hPa | 0 mm | - | 148 W/m² | - |
| 1777998305 | 16.67° C | 67% | 1002.1 hPa | 0 mm | - | 154 W/m² | - |
| 1777998005 | 16.67° C | 68% | 1001.9 hPa | 0 mm | - | 206 W/m² | - |
| 1777997705 | 16.67° C | 67% | 1001.7 hPa | 0 mm | - | 183 W/m² | - |
| 1777997405 | 16.67° C | 68% | 1001.7 hPa | 0 mm | - | 166 W/m² | - |
| 1777997105 | 16.11° C | 69% | 1001.7 hPa | 0 mm | - | 128 W/m² | - |
* Rain latest hour (hover to see other rain measurements)
** Current wind speed in m/s (hover to see current wind gust speed)